Time;durP1;ratioP1;P1;durP2;ratioP2;P2;SDS_P1;SDS_P2;PMS_P1;PMS_P2;Temp;Humidity;BMP_temperature;BMP_pressure;BME280_temperature;BME280_humidity;BME280_pressure;Samples;Min_cycle;Max_cycle;Signal;HPM_P1;HPM_P2
2022/06/02 00:00:07;;;;;;;9.10;6.97;;;;;;;20.92;96.47;100442.25;4936841;28;20066;-73
2022/06/02 00:02:54;;;;;;;12.00;7.15;;;;;;;20.92;95.13;100418.63;4953875;28;20037;-77
2022/06/02 00:05:34;;;;;;;10.07;7.38;;;;;;;20.71;96.53;100437.06;4970585;28;20042;-76
2022/06/02 00:08:32;;;;;;;13.80;7.18;;;;;;;20.67;97.45;100431.84;4969869;28;20940;-76
2022/06/02 00:11:16;;;;;;;8.45;7.00;;;;;;;20.68;95.35;100427.47;4931271;29;20868;-74
2022/06/02 00:13:48;;;;;;;14.23;8.02;;;;;;;20.78;95.02;100436.19;4932452;29;20040;-75
2022/06/02 00:16:25;;;;;;;11.20;7.50;;;;;;;20.83;93.80;100431.78;4921521;29;20096;-79
2022/06/02 00:18:59;;;;;;;13.32;7.28;;;;;;;20.94;93.18;100445.69;4893245;29;20467;-78
2022/06/02 00:21:47;;;;;;;13.70;7.80;;;;;;;20.73;90.45;100435.34;4875720;29;20037;-78
2022/06/02 00:24:35;;;;;;;16.02;7.75;;;;;;;20.71;88.90;100417.00;4896439;29;20127;-78
2022/06/02 00:27:09;;;;;;;20.77;7.10;;;;;;;20.80;87.96;100426.56;4859108;29;20112;-80
2022/06/02 00:30:03;;;;;;;16.15;7.53;;;;;;;20.85;87.64;100445.78;4875241;29;20045;-80
2022/06/02 00:32:56;;;;;;;23.80;7.43;;;;;;;20.79;88.72;100445.81;4859491;29;20131;-80
2022/06/02 00:35:31;;;;;;;12.65;6.78;;;;;;;20.82;88.95;100443.16;4873721;29;20053;-76
2022/06/02 00:38:29;;;;;;;14.55;7.47;;;;;;;20.86;88.30;100447.53;4868549;29;20040;-76
2022/06/02 00:41:04;;;;;;;13.48;7.28;;;;;;;20.76;88.68;100422.19;4875438;29;20142;-76
2022/06/02 00:43:30;;;;;;;13.27;6.95;;;;;;;20.76;88.01;100422.19;4875148;29;20516;-77
2022/06/02 00:46:18;;;;;;;11.38;7.10;;;;;;;20.79;88.45;100451.91;4875164;29;20088;-76
2022/06/02 00:49:08;;;;;;;10.77;7.60;;;;;;;20.42;91.02;100449.44;4931780;29;20055;-76
2022/06/02 00:51:48;;;;;;;11.90;8.00;;;;;;;19.97;93.93;100438.22;4928283;29;20050;-76
2022/06/02 00:57:48;;;;;;;9.77;7.72;;;;;;;19.55;96.88;100435.63;4931388;29;20049;-75
2022/06/02 01:00:19;;;;;;;10.20;7.32;;;;;;;19.08;98.71;100425.13;4930848;29;20139;-76
2022/06/02 01:02:55;;;;;;;11.57;7.65;;;;;;;19.23;98.29;100434.75;4930823;29;20118;-76
2022/06/02 01:05:24;;;;;;;13.77;6.88;;;;;;;19.14;97.50;100426.91;4990648;28;20038;-76
2022/06/02 01:08:05;;;;;;;14.63;7.45;;;;;;;18.96;98.04;100424.25;4989004;28;20026;-76
2022/06/02 01:11:14;;;;;;;10.50;7.90;;;;;;;18.59;99.02;100397.13;4988639;28;20108;-76
2022/06/02 01:14:14;;;;;;;10.65;6.50;;;;;;;18.53;99.64;100389.25;4991002;28;20491;-75
2022/06/02 01:17:16;;;;;;;11.93;6.88;;;;;;;19.02;98.79;100427.75;4991092;28;20180;-76
2022/06/02 01:20:14;;;;;;;8.63;7.05;;;;;;;19.22;96.96;100417.28;4990799;28;20552;-76
2022/06/02 01:23:02;;;;;;;11.43;6.57;;;;;;;19.38;96.50;100417.31;4991038;28;20062;-76
2022/06/02 01:25:39;;;;;;;14.20;6.30;;;;;;;19.23;94.89;100366.69;4989459;28;20026;-75
2022/06/02 01:28:32;;;;;;;13.15;6.35;;;;;;;19.47;94.79;100416.44;4988662;28;20378;-76
2022/06/02 01:31:40;;;;;;;11.23;6.90;;;;;;;19.45;94.77;100399.84;4988231;28;20530;-76
2022/06/02 01:34:20;;;;;;;12.77;6.22;;;;;;;19.65;94.26;100420.78;4988748;28;20424;-77
2022/06/02 01:36:45;;;;;;;10.15;5.80;;;;;;;19.85;93.39;100423.38;4988635;28;20035;-76
2022/06/02 01:39:19;;;;;;;13.25;6.40;;;;;;;19.99;92.04;100420.75;4988658;28;20500;-76
2022/06/02 01:41:58;;;;;;;8.65;5.78;;;;;;;19.93;91.97;100397.19;4988652;28;20038;-75
2022/06/02 01:44:56;;;;;;;9.38;6.65;;;;;;;20.14;90.49;100420.69;4988756;28;20180;-77
2022/06/02 01:47:42;;;;;;;15.98;6.15;;;;;;;20.19;89.45;100418.94;4988679;28;20034;-76
2022/06/02 01:50:28;;;;;;;11.50;5.72;;;;;;;20.32;88.18;100418.88;4988233;28;20493;-76
2022/06/02 01:53:15;;;;;;;12.13;6.25;;;;;;;20.22;88.34;100414.56;4988224;28;20459;-76
2022/06/02 01:55:49;;;;;;;10.90;6.60;;;;;;;19.66;90.92;100381.47;4988487;28;20037;-76
2022/06/02 01:58:40;;;;;;;9.45;6.07;;;;;;;19.55;92.67;100418.19;4988538;28;20030;-74
2022/06/02 02:01:27;;;;;;;14.55;6.57;;;;;;;19.50;93.39;100411.19;4988354;28;20041;-76
2022/06/02 02:04:09;;;;;;;8.93;6.63;;;;;;;19.37;94.15;100419.03;4987347;28;20144;-77
2022/06/02 02:07:01;;;;;;;8.52;6.43;;;;;;;18.88;95.42;100350.97;4988032;28;20567;-76
2022/06/02 02:09:47;;;;;;;10.80;6.55;;;;;;;19.34;94.47;100420.78;4957074;28;20039;-75
2022/06/02 02:12:24;;;;;;;11.82;5.88;;;;;;;19.20;93.03;100405.09;4968843;28;20038;-76
2022/06/02 02:15:16;;;;;;;15.45;7.25;;;;;;;19.49;90.08;100426.03;4968883;28;20121;-76
2022/06/02 02:18:07;;;;;;;13.95;6.72;;;;;;;19.50;90.55;100424.28;4968923;28;20564;-76
2022/06/02 02:20:50;;;;;;;17.90;7.47;;;;;;;19.48;89.46;100424.28;4968611;28;20077;-76
2022/06/02 02:23:30;;;;;;;15.30;7.15;;;;;;;19.49;89.18;100410.31;4968643;28;20046;-76
2022/06/02 02:26:13;;;;;;;17.40;7.32;;;;;;;19.53;90.24;100419.06;4968427;28;20618;-76
2022/06/02 02:28:52;;;;;;;10.77;7.03;;;;;;;19.32;91.24;100409.47;4968615;28;20038;-76
2022/06/02 02:31:27;;;;;;;13.13;7.80;;;;;;;19.32;91.39;100412.06;4968989;28;20109;-76
2022/06/02 02:34:23;;;;;;;12.73;6.90;;;;;;;19.39;91.25;100422.53;4968317;28;20070;-76
2022/06/02 02:36:57;;;;;;;15.05;7.10;;;;;;;19.42;90.36;100413.81;4968758;28;20490;-76
2022/06/02 02:39:49;;;;;;;12.80;6.63;;;;;;;19.50;88.96;100427.78;4968288;28;20045;-76
2022/06/02 02:42:28;;;;;;;17.55;6.90;;;;;;;19.43;89.28;100427.75;4970460;28;20031;-76
2022/06/02 02:45:27;;;;;;;14.30;7.53;;;;;;;19.48;89.30;100434.75;4972644;28;20105;-76
2022/06/02 02:48:05;;;;;;;12.40;7.13;;;;;;;19.31;90.19;100405.09;4994144;28;20512;-76
2022/06/02 02:51:07;;;;;;;11.68;7.13;;;;;;;19.45;89.48;100420.78;4980927;28;20030;-76
2022/06/02 02:53:56;;;;;;;19.70;7.25;;;;;;;19.47;89.66;100438.25;4991439;28;20042;-77
2022/06/02 02:56:40;;;;;;;18.23;7.60;;;;;;;19.39;90.45;100416.44;4991612;28;20038;-74
2022/06/02 02:59:47;;;;;;;10.88;7.90;;;;;;;19.49;90.78;100439.13;4991193;28;20522;-74
2022/06/02 03:02:27;;;;;;;15.93;8.13;;;;;;;19.47;90.38;100421.69;4895548;29;20037;-77
2022/06/02 03:04:58;;;;;;;18.27;7.75;;;;;;;19.65;90.24;100437.38;4895625;29;20118;-75
2022/06/02 03:07:24;;;;;;;15.88;7.72;;;;;;;19.61;90.21;100435.63;4895427;29;20525;-73
2022/06/02 03:09:52;;;;;;;12.55;7.75;;;;;;;19.67;90.00;100450.47;4895849;29;20040;-74
2022/06/02 03:12:30;;;;;;;16.88;8.85;;;;;;;19.63;90.55;100448.72;4895396;29;20047;-74
2022/06/02 03:15:19;;;;;;;13.63;7.68;;;;;;;19.67;90.45;100460.94;4895734;29;20112;-74
2022/06/02 03:18:06;;;;;;;18.63;8.90;;;;;;;19.60;90.30;100438.25;4895067;29;20036;-75
2022/06/02 03:20:37;;;;;;;12.32;7.05;;;;;;;19.70;90.39;100447.81;4895446;29;20040;-75
2022/06/02 03:23:22;;;;;;;17.30;7.65;;;;;;;19.64;89.53;100448.72;4895307;29;20040;-75
2022/06/02 03:26:00;;;;;;;12.95;7.47;;;;;;;19.68;88.79;100452.22;4895296;29;20524;-75
2022/06/02 03:28:45;;;;;;;11.80;7.47;;;;;;;19.76;88.37;100450.44;4895407;29;20511;-75
2022/06/02 03:31:11;;;;;;;11.38;6.95;;;;;;;19.68;88.90;100450.44;4900093;29;20164;-76
2022/06/02 03:33:42;;;;;;;13.75;7.22;;;;;;;19.60;89.75;100453.94;4913937;29;20126;-79
2022/06/02 03:36:18;;;;;;;15.93;7.53;;;;;;;19.57;89.76;100457.44;4914149;29;20129;-74
2022/06/02 03:38:49;;;;;;;15.18;7.57;;;;;;;19.68;89.88;100446.97;4961901;28;20113;-75
2022/06/02 03:41:35;;;;;;;16.05;8.70;;;;;;;19.62;90.81;100442.59;4993322;28;20030;-76
2022/06/02 03:44:11;;;;;;;12.40;7.93;;;;;;;19.62;91.06;100449.59;4993089;28;20069;-75
2022/06/02 03:47:01;;;;;;;11.95;7.20;;;;;;;19.61;90.63;100446.09;4993470;28;20050;-75
2022/06/02 03:49:48;;;;;;;13.00;8.30;;;;;;;19.69;91.35;100448.72;4993107;28;20041;-75
2022/06/02 03:52:13;;;;;;;15.32;8.63;;;;;;;19.66;91.47;100438.25;4992592;28;20037;-73
2022/06/02 03:55:03;;;;;;;10.93;7.43;;;;;;;19.48;91.89;100452.22;4992805;28;20027;-75
2022/06/02 03:58:05;;;;;;;12.85;8.27;;;;;;;19.32;93.63;100448.72;4992516;28;20030;-74
2022/06/02 04:00:59;;;;;;;13.85;8.07;;;;;;;19.18;94.92;100452.19;4992850;28;20061;-74
2022/06/02 04:03:46;;;;;;;10.15;7.47;;;;;;;19.23;95.54;100445.22;4992693;28;20033;-74
2022/06/02 04:06:33;;;;;;;11.93;8.55;;;;;;;19.36;95.66;100437.38;4992891;28;20076;-73
2022/06/02 04:09:36;;;;;;;13.48;8.75;;;;;;;19.36;96.31;100434.75;4992348;28;20460;-74
2022/06/02 04:15:35;;;;;;;17.65;10.27;;;;;;;19.39;98.10;100433.00;4990476;28;20065;-74
2022/06/02 04:18:04;;;;;;;13.43;8.60;;;;;;;19.53;97.97;100446.09;4989985;28;20057;-75
2022/06/02 04:21:11;;;;;;;10.97;9.63;;;;;;;19.53;99.10;100448.72;4989701;28;20493;-74
2022/06/02 04:23:55;;;;;;;17.02;10.07;;;;;;;19.49;100.00;100441.75;4951096;29;20620;-75
2022/06/02 04:26:39;;;;;;;15.52;10.02;;;;;;;19.58;100.00;100443.47;4951047;29;20043;-74
2022/06/02 04:29:16;;;;;;;14.35;10.13;;;;;;;19.55;100.00;100446.09;4951046;29;20047;-77
2022/06/02 04:32:40;;;;;;;16.45;10.43;;;;;;;19.60;100.00;100439.13;4951134;29;20174;-73
2022/06/02 04:35:43;;;;;;;12.75;9.95;;;;;;;19.72;100.00;100453.94;4856810;29;20057;-73
2022/06/02 04:38:17;;;;;;;13.32;9.77;;;;;;;19.46;100.00;100430.41;4856781;29;20069;-75
2022/06/02 04:40:56;;;;;;;16.45;10.20;;;;;;;19.54;100.00;100454.84;4856612;29;20481;-76
2022/06/02 04:43:31;;;;;;;14.40;10.32;;;;;;;19.57;100.00;100457.44;4856573;29;20038;-75
2022/06/02 04:46:14;;;;;;;18.75;11.02;;;;;;;19.70;100.00;100458.31;4856641;29;20046;-75
2022/06/02 04:48:52;;;;;;;14.20;10.52;;;;;;;19.78;100.00;100460.94;4856504;29;20537;-74
2022/06/02 04:51:34;;;;;;;14.68;10.25;;;;;;;19.81;100.00;100459.19;4856647;29;20093;-75
2022/06/02 04:54:37;;;;;;;15.35;10.48;;;;;;;19.85;100.00;100460.94;4856081;29;20640;-74
2022/06/02 04:57:11;;;;;;;15.73;10.07;;;;;;;19.81;100.00;100467.06;4856351;29;20034;-74
2022/06/02 05:00:00;;;;;;;14.75;10.57;;;;;;;19.90;100.00;100460.06;4858857;29;20038;-75
2022/06/02 05:02:46;;;;;;;14.75;10.88;;;;;;;20.09;100.00;100469.66;4893554;29;20032;-75
2022/06/02 05:05:23;;;;;;;17.00;11.73;;;;;;;20.03;100.00;100469.66;4934499;28;20594;-75
2022/06/02 05:08:29;;;;;;;15.63;11.90;;;;;;;20.10;100.00;100474.00;5008868;28;20041;-74
2022/06/02 05:11:24;;;;;;;15.45;11.10;;;;;;;20.14;100.00;100465.25;4995008;28;20033;-74
2022/06/02 05:14:10;;;;;;;14.50;11.10;;;;;;;20.22;100.00;100456.50;5006916;28;20050;-75
2022/06/02 05:16:51;;;;;;;16.42;11.38;;;;;;;20.35;100.00;100477.44;5008230;28;20692;-74
2022/06/02 05:19:48;;;;;;;16.25;12.07;;;;;;;20.47;100.00;100471.28;5008409;28;20124;-74
2022/06/02 05:22:44;;;;;;;14.68;10.65;;;;;;;20.60;100.00;100472.09;5008370;28;20030;-74
2022/06/02 05:25:24;;;;;;;17.10;11.23;;;;;;;20.77;100.00;100472.06;4999038;28;20050;-74
2022/06/02 05:28:07;;;;;;;15.52;10.57;;;;;;;20.90;100.00;100472.84;4990048;28;20057;-77
2022/06/02 05:31:07;;;;;;;14.95;10.85;;;;;;;21.07;100.00;100466.63;4991147;28;20093;-74
2022/06/02 05:33:38;;;;;;;13.02;11.40;;;;;;;21.20;100.00;100462.16;4991360;28;20030;-75
2022/06/02 05:36:34;;;;;;;19.70;10.57;;;;;;;20.99;100.00;100427.31;4990981;28;20034;-74
2022/06/02 05:39:24;;;;;;;13.38;10.05;;;;;;;21.30;100.00;100461.22;4991147;28;20029;-74
2022/06/02 05:42:23;;;;;;;13.73;10.80;;;;;;;21.40;100.00;100465.50;4991129;28;20030;-73
2022/06/02 05:45:09;;;;;;;13.40;10.25;;;;;;;21.56;99.29;100458.41;4991130;28;20033;-74
2022/06/02 05:48:15;;;;;;;13.50;9.52;;;;;;;21.60;96.30;100454.00;4991046;28;20042;-75
2022/06/02 05:50:56;;;;;;;14.88;9.50;;;;;;;21.53;97.11;100429.50;4978807;28;20054;-74
2022/06/02 05:53:30;;;;;;;14.00;8.73;;;;;;;21.62;96.40;100465.34;4990676;28;20404;-73
2022/06/02 05:56:17;;;;;;;12.13;9.18;;;;;;;21.65;98.65;100460.94;4990723;28;20162;-74
2022/06/02 05:59:00;;;;;;;12.52;9.05;;;;;;;21.75;97.24;100468.75;4989415;28;20457;-74
2022/06/02 06:01:57;;;;;;;13.02;8.25;;;;;;;21.85;98.70;100466.94;4990533;28;20414;-76
2022/06/02 06:04:38;;;;;;;11.45;8.27;;;;;;;21.85;94.45;100440.66;4989145;28;20089;-74
2022/06/02 06:07:31;;;;;;;11.70;8.95;;;;;;;22.04;95.44;100457.09;4990692;28;20493;-74
2022/06/02 06:10:00;;;;;;;18.38;8.75;;;;;;;21.91;95.49;100444.06;4990688;28;20029;-73
2022/06/02 06:12:54;;;;;;;11.98;8.25;;;;;;;22.17;95.47;100463.97;4990573;28;20042;-74
2022/06/02 06:15:29;;;;;;;11.82;8.45;;;;;;;22.30;93.73;100467.31;4989794;28;20177;-73
2022/06/02 06:18:25;;;;;;;11.13;8.20;;;;;;;22.35;94.10;100467.28;4990649;28;20094;-72
2022/06/02 06:21:15;;;;;;;11.88;7.88;;;;;;;22.50;93.79;100475.00;4990716;28;20068;-74
2022/06/02 06:23:59;;;;;;;;;;;;;;;22.77;92.79;100473.75;4990915;28;20041;-74
2022/06/02 06:26:51;;;;;;;15.95;7.55;;;;;;;22.56;90.82;100437.22;4990703;28;19918;-74
2022/06/02 06:29:26;;;;;;;11.95;8.02;;;;;;;22.81;93.67;100471.09;4990641;28;20026;-74
2022/06/02 06:32:27;;;;;;;10.98;7.68;;;;;;;22.86;93.66;100464.00;4990988;28;20037;-77
2022/06/02 06:35:13;;;;;;;11.10;7.47;;;;;;;23.01;90.82;100469.06;4987901;28;20041;-73
2022/06/02 06:37:39;;;;;;;13.38;7.90;;;;;;;23.01;88.23;100433.97;4988336;28;20073;-74
2022/06/02 06:40:07;;;;;;;9.60;6.72;;;;;;;23.12;89.84;100445.19;4988447;28;20070;-73
2022/06/02 06:43:00;;;;;;;10.43;7.10;;;;;;;23.26;88.83;100466.97;4988576;28;20096;-74
2022/06/02 06:45:31;;;;;;;11.63;7.05;;;;;;;23.45;89.23;100468.44;4988223;28;20038;-74
2022/06/02 06:48:03;;;;;;;9.30;7.63;;;;;;;23.46;88.30;100439.41;4988156;28;20743;-79
2022/06/02 06:50:38;;;;;;;8.75;6.93;;;;;;;23.70;89.13;100472.38;4988241;28;20034;-74
2022/06/02 06:53:23;;;;;;;8.40;7.05;;;;;;;23.80;88.53;100459.94;4988396;28;20045;-73
2022/06/02 06:55:55;;;;;;;9.85;7.28;;;;;;;23.73;86.07;100445.97;4988135;28;20044;-74
2022/06/02 06:58:37;;;;;;;11.10;6.93;;;;;;;23.87;84.86;100435.16;4971524;28;20042;-73
2022/06/02 07:01:14;;;;;;;8.48;6.97;;;;;;;24.31;84.13;100461.63;4986571;28;20101;-73
2022/06/02 07:03:55;;;;;;;9.43;6.40;;;;;;;24.27;84.93;100448.53;4986422;28;20058;-73
2022/06/02 07:06:48;;;;;;;7.93;6.30;;;;;;;24.49;82.81;100475.34;4985320;28;20031;-73
2022/06/02 07:09:20;;;;;;;10.20;6.63;;;;;;;24.66;85.75;100472.34;4971405;28;20124;-74
2022/06/02 07:14:54;;;;;;;8.35;6.22;;;;;;;24.87;82.57;100471.03;4979314;28;20042;-73
2022/06/02 07:18:03;;;;;;;9.32;7.13;;;;;;;25.03;83.82;100469.78;4978191;28;20038;-73
2022/06/02 07:20:59;;;;;;;8.52;5.85;;;;;;;25.08;80.76;100460.88;4947851;29;20531;-74
2022/06/02 07:23:45;;;;;;;10.32;6.80;;;;;;;25.31;81.53;100476.16;4944517;29;20043;-71
2022/06/02 07:26:13;;;;;;;9.88;5.93;;;;;;;25.45;79.46;100474.09;4948771;29;20085;-77
2022/06/02 07:28:47;;;;;;;11.32;6.15;;;;;;;25.57;77.95;100480.88;4950502;28;20082;-76
2022/06/02 07:31:50;;;;;;;9.52;5.57;;;;;;;25.71;76.36;100490.19;4949965;29;20155;-71
2022/06/02 07:34:40;;;;;;;8.98;5.75;;;;;;;25.74;78.54;100488.34;4952049;29;20035;-73
2022/06/02 07:37:42;;;;;;;10.85;6.13;;;;;;;25.77;78.07;100490.03;4952003;29;20023;-74
2022/06/02 07:40:24;;;;;;;9.65;5.93;;;;;;;25.88;77.04;100469.47;4950971;29;20518;-76
2022/06/02 07:43:22;;;;;;;7.82;5.63;;;;;;;25.93;72.55;100483.47;4951659;29;20057;-76
2022/06/02 07:46:09;;;;;;;10.07;5.10;;;;;;;25.90;74.61;100474.75;4967386;28;20533;-75
2022/06/02 07:49:02;;;;;;;12.02;6.00;;;;;;;26.06;75.15;100481.38;4951577;29;20039;-78
2022/06/02 07:51:36;;;;;;;13.07;5.80;;;;;;;26.13;74.66;100482.06;4891240;29;20127;-75
2022/06/02 07:54:16;;;;;;;10.10;5.75;;;;;;;26.00;73.51;100455.06;4893544;29;20044;-75
2022/06/02 07:57:07;;;;;;;10.93;5.57;;;;;;;26.17;71.74;100483.75;4894771;29;20044;-73
2022/06/02 07:59:41;;;;;;;9.73;5.50;;;;;;;26.21;69.43;100479.22;4912357;29;20028;-75
2022/06/02 08:02:52;;;;;;;7.78;5.13;;;;;;;26.34;69.36;100480.59;4913770;29;20122;-75
2022/06/02 08:05:42;;;;;;;8.68;4.25;;;;;;;26.50;71.59;100470.44;4912928;28;20028;-74
2022/06/02 08:08:17;;;;;;;8.25;4.72;;;;;;;26.60;68.14;100471.03;4912003;29;20039;-72
2022/06/02 08:10:52;;;;;;;7.60;4.63;;;;;;;26.71;66.96;100465.44;4911786;29;20523;-75
2022/06/02 08:13:34;;;;;;;6.68;4.93;;;;;;;26.78;66.28;100437.84;4909612;29;20040;-78
2022/06/02 08:16:21;;;;;;;10.38;5.20;;;;;;;27.07;68.04;100444.03;4910387;29;20044;-72
2022/06/02 08:18:55;;;;;;;8.48;4.75;;;;;;;27.16;67.84;100449.03;4914269;29;20056;-75
2022/06/02 08:21:33;;;;;;;9.20;4.90;;;;;;;27.32;65.58;100449.41;4929940;29;20044;-74
2022/06/02 08:24:27;;;;;;;6.80;4.00;;;;;;;27.47;65.25;100448.06;4914049;29;20424;-78
2022/06/02 08:27:14;;;;;;;10.70;4.88;;;;;;;27.56;71.24;100450.38;4914121;29;20054;-76
2022/06/02 08:29:48;;;;;;;11.45;4.80;;;;;;;27.57;63.23;100445.94;4969729;28;20101;-77
2022/06/02 08:32:35;;;;;;;7.47;4.38;;;;;;;27.69;63.48;100442.00;4973475;28;20398;-78
2022/06/02 08:35:06;;;;;;;7.70;4.82;;;;;;;27.83;60.80;100441.53;4973964;28;20038;-77
2022/06/02 08:37:43;;;;;;;8.02;5.22;;;;;;;27.85;65.30;100419.34;4973514;28;20486;-75
2022/06/02 08:40:29;;;;;;;9.50;4.47;;;;;;;27.94;60.94;100439.38;4973149;28;20033;-76
2022/06/02 08:43:19;;;;;;;10.02;4.63;;;;;;;28.08;61.09;100436.22;4972148;28;20034;-74
2022/06/02 08:45:56;;;;;;;;;;;;;;;28.17;62.34;100432.38;4974017;28;20034;-75
2022/06/02 08:48:48;;;;;;;7.75;4.28;;;;;;;28.32;59.44;100433.59;4973490;28;19914;-74
2022/06/02 08:51:32;;;;;;;6.47;4.30;;;;;;;28.43;60.19;100433.19;4973330;28;20070;-78
2022/06/02 08:54:33;;;;;;;9.80;4.90;;;;;;;28.20;61.82;100411.00;4973274;28;20035;-78
2022/06/02 08:57:32;;;;;;;9.30;4.88;;;;;;;28.30;63.65;100430.13;4970714;28;20102;-79
2022/06/02 09:00:09;;;;;;;7.68;4.15;;;;;;;28.16;60.11;100430.63;4971034;28;20370;-72
2022/06/02 09:02:35;;;;;;;6.35;4.55;;;;;;;28.11;61.49;100436.09;4970840;28;20042;-77
2022/06/02 09:05:33;;;;;;;10.98;4.47;;;;;;;28.12;62.68;100403.34;4970793;28;20034;-75
2022/06/02 09:08:17;;;;;;;9.20;4.40;;;;;;;28.39;62.94;100433.28;4970727;28;20086;-74
2022/06/02 09:11:01;;;;;;;8.98;4.60;;;;;;;28.46;60.52;100430.41;4970680;28;20138;-76
2022/06/02 09:14:13;;;;;;;6.30;4.03;;;;;;;28.51;59.86;100431.97;4970693;28;20035;-78
2022/06/02 09:17:07;;;;;;;9.05;3.90;;;;;;;28.69;58.41;100429.56;4970728;28;20057;-73
2022/06/02 09:19:35;;;;;;;6.75;4.40;;;;;;;28.79;58.99;100424.75;4970515;28;20027;-76
2022/06/02 09:22:28;;;;;;;7.77;4.57;;;;;;;28.84;57.03;100422.78;4970453;28;20050;-76
2022/06/02 09:25:06;;;;;;;10.35;4.57;;;;;;;29.00;62.96;100428.34;4970481;28;20038;-77
2022/06/02 09:28:09;;;;;;;8.95;3.97;;;;;;;29.13;57.55;100424.22;4970283;28;20038;-75
2022/06/02 09:30:53;;;;;;;7.38;3.97;;;;;;;29.42;54.30;100408.00;4970202;28;20457;-76
2022/06/02 09:33:44;;;;;;;6.88;3.78;;;;;;;29.45;52.87;100406.09;4970452;28;20509;-75
2022/06/02 09:36:24;;;;;;;7.18;4.30;;;;;;;29.61;55.62;100410.72;4972487;28;20406;-76
2022/06/02 09:38:55;;;;;;;7.68;4.57;;;;;;;29.76;54.30;100410.06;4972455;28;20429;-77
2022/06/02 09:41:54;;;;;;;8.93;4.05;;;;;;;29.93;55.17;100406.66;4972597;28;20039;-75
2022/06/02 09:44:35;;;;;;;9.48;4.22;;;;;;;30.09;52.41;100398.84;4972553;28;20034;-77
2022/06/02 09:47:34;;;;;;;9.73;3.97;;;;;;;30.28;51.24;100401.56;4972349;28;20031;-77
2022/06/02 09:50:27;;;;;;;4.97;3.60;;;;;;;30.36;55.01;100374.56;4969764;28;20058;-73
2022/06/02 09:53:35;;;;;;;5.55;4.05;;;;;;;30.61;50.85;100389.41;4969834;28;20529;-76
2022/06/02 09:56:52;;;;;;;7.88;4.63;;;;;;;30.64;51.65;100398.13;4970034;28;20097;-73
2022/06/02 09:59:31;;;;;;;5.43;3.85;;;;;;;30.65;51.96;100370.50;4931493;29;20044;-77
2022/06/02 10:02:06;;;;;;;;;;;;;;;30.80;52.04;100390.22;4931889;29;20036;-75
2022/06/02 10:05:06;;;;;;;7.05;4.47;;;;;;;30.81;51.06;100386.63;4931307;29;19915;-74
2022/06/02 10:07:47;;;;;;;7.97;4.22;;;;;;;30.38;52.69;100330.09;4931391;29;20143;-73
2022/06/02 10:10:31;;;;;;;9.00;4.13;;;;;;;30.57;51.38;100387.81;4931403;29;20486;-72
2022/06/02 10:13:22;;;;;;;7.85;4.60;;;;;;;30.37;53.15;100394.94;4931265;29;20031;-76
2022/06/02 10:16:20;;;;;;;7.57;4.07;;;;;;;30.21;53.71;100399.22;4931355;29;20047;-76
2022/06/02 10:19:29;;;;;;;6.68;4.05;;;;;;;30.31;51.73;100401.41;4899540;29;20056;-77
2022/06/02 10:22:03;;;;;;;8.95;3.55;;;;;;;30.74;50.45;100395.84;4912102;29;20032;-73
2022/06/02 10:24:59;;;;;;;10.98;4.53;;;;;;;31.12;48.95;100395.78;4909494;29;20036;-76
2022/06/02 10:27:37;;;;;;;7.32;3.92;;;;;;;31.44;50.08;100387.97;4898470;29;20064;-79
2022/06/02 10:30:27;;;;;;;6.65;4.60;;;;;;;31.58;48.26;100381.06;4885637;29;20029;-75
2022/06/02 10:33:43;;;;;;;7.15;3.58;;;;;;;31.56;49.48;100382.94;4884594;29;20130;-74
2022/06/02 10:36:41;;;;;;;6.13;3.72;;;;;;;31.70;50.24;100379.56;4911463;29;20039;-74
2022/06/02 10:39:41;;;;;;;7.97;3.80;;;;;;;31.82;46.98;100372.72;4902994;29;20048;-75
2022/06/02 10:42:23;;;;;;;7.65;3.50;;;;;;;31.82;49.48;100376.22;4869621;29;20541;-76
2022/06/02 10:45:27;;;;;;;8.20;3.58;;;;;;;31.80;49.27;100371.91;4872562;29;20203;-76
2022/06/02 10:48:11;;;;;;;6.30;3.83;;;;;;;32.00;45.71;100368.16;4834850;29;20034;-74
2022/06/02 10:51:15;;;;;;;10.98;3.83;;;;;;;32.18;46.77;100374.31;4836555;29;20034;-75
2022/06/02 10:53:46;;;;;;;5.32;3.83;;;;;;;32.33;43.10;100349.44;4834774;29;20061;-76
2022/06/02 10:56:43;;;;;;;7.57;3.78;;;;;;;32.45;43.14;100366.63;4836031;29;20045;-76
2022/06/02 10:59:30;;;;;;;8.02;3.60;;;;;;;32.49;44.98;100369.94;4850760;29;20049;-73
2022/06/02 11:01:59;;;;;;;4.10;3.33;;;;;;;32.68;46.58;100369.78;4840630;29;20037;-75
2022/06/02 11:04:52;;;;;;;8.53;3.43;;;;;;;32.53;42.57;100360.81;4856982;29;20081;-75
2022/06/02 11:07:52;;;;;;;5.63;3.55;;;;;;;32.39;42.36;100351.78;4857407;29;20077;-72
2022/06/02 11:10:26;;;;;;;5.25;3.33;;;;;;;32.57;41.04;100328.47;4809201;29;20043;-72
2022/06/02 11:13:19;;;;;;;6.78;3.70;;;;;;;32.45;42.24;100323.84;4801576;29;20059;-72
2022/06/02 11:16:09;;;;;;;7.13;3.47;;;;;;;32.62;44.61;100346.06;4806969;29;20431;-74
2022/06/02 11:18:44;;;;;;;10.23;3.80;;;;;;;32.19;44.25;100355.56;4887488;29;20063;-74
2022/06/02 11:21:32;;;;;;;6.60;3.30;;;;;;;31.96;45.82;100351.44;4926297;28;20755;-75
2022/06/02 11:24:10;;;;;;;7.88;3.47;;;;;;;31.82;46.61;100357.53;4991454;28;20038;-74
2022/06/02 11:27:14;;;;;;;5.63;3.53;;;;;;;31.71;47.50;100350.09;4992710;28;20037;-73
2022/06/02 11:30:11;;;;;;;8.73;3.83;;;;;;;31.50;46.66;100345.88;4967224;28;20552;-72
2022/06/02 11:32:57;;;;;;;9.23;3.70;;;;;;;31.28;46.59;100339.03;4967637;28;20038;-72
2022/06/02 11:35:33;;;;;;;5.40;3.20;;;;;;;31.16;47.83;100348.50;4965198;28;20046;-72
2022/06/02 11:38:37;;;;;;;9.18;4.03;;;;;;;30.85;51.31;100351.84;4954106;28;20477;-74
2022/06/02 11:41:30;;;;;;;13.10;3.55;;;;;;;30.44;51.21;100363.53;4968529;28;20642;-73
2022/06/02 11:44:14;;;;;;;17.00;4.40;;;;;;;29.70;55.55;100375.75;4968713;28;20036;-74
2022/06/02 11:46:48;;;;;;;11.38;4.07;;;;;;;29.28;56.97;100369.53;4970409;28;20039;-77
2022/06/02 11:49:17;;;;;;;12.50;4.75;;;;;;;29.23;58.79;100363.56;4970112;28;20158;-75
2022/06/02 11:51:51;;;;;;;8.85;4.22;;;;;;;29.30;60.34;100346.44;4968692;28;20035;-75
2022/06/02 11:54:28;;;;;;;9.23;4.78;;;;;;;29.37;65.94;100336.41;4970074;28;20038;-75
2022/06/02 11:57:12;;;;;;;7.43;4.50;;;;;;;29.35;72.45;100351.56;4970094;28;20031;-73
2022/06/02 11:59:56;;;;;;;8.35;5.25;;;;;;;28.98;68.86;100314.09;4970018;28;20133;-75
2022/06/02 12:02:21;;;;;;;7.75;5.15;;;;;;;29.15;66.24;100334.66;4969190;28;20035;-76
2022/06/02 12:04:49;;;;;;;11.40;5.40;;;;;;;29.15;66.53;100332.00;4968075;28;20142;-76
2022/06/02 12:07:40;;;;;;;11.20;5.50;;;;;;;29.17;66.31;100329.25;4987836;28;20105;-75
2022/06/02 12:10:27;;;;;;;9.50;5.35;;;;;;;29.31;62.62;100324.25;4991444;28;20041;-74
2022/06/02 12:13:10;;;;;;;5.93;3.58;;;;;;;29.52;62.63;100303.81;4990960;28;20034;-75
2022/06/02 12:15:44;;;;;;;6.47;3.40;;;;;;;29.96;53.79;100324.03;4990593;28;20031;-76
2022/06/02 12:18:16;;;;;;;5.80;3.35;;;;;;;29.94;53.46;100319.72;4991571;28;20046;-77
2022/06/02 12:21:29;;;;;;;9.32;3.72;;;;;;;30.36;54.98;100307.09;4990439;28;20468;-76
2022/06/02 12:23:55;;;;;;;5.57;3.05;;;;;;;30.87;48.39;100307.28;4950141;28;20118;-75
2022/06/02 12:26:41;;;;;;;4.97;3.13;;;;;;;31.14;49.54;100313.94;4950454;28;20047;-74
2022/06/02 12:29:38;;;;;;;4.85;3.10;;;;;;;31.50;45.74;100313.88;4950350;28;20486;-74
2022/06/02 12:32:18;;;;;;;5.18;2.88;;;;;;;31.56;46.62;100301.06;4911520;29;20051;-74
2022/06/02 12:35:09;;;;;;;5.65;3.17;;;;;;;31.62;45.03;100295.38;4911928;29;20430;-74
2022/06/02 12:38:11;;;;;;;4.60;3.30;;;;;;;31.68;43.93;100291.56;4911899;29;20082;-74
2022/06/02 12:41:11;;;;;;;6.10;3.53;;;;;;;32.03;43.99;100299.44;4911880;29;20036;-74
2022/06/02 12:43:49;;;;;;;7.75;3.03;;;;;;;32.41;42.03;100301.78;4895868;29;20087;-72
2022/06/02 12:46:43;;;;;;;7.40;3.72;;;;;;;32.64;43.12;100294.25;4910139;29;20487;-73
2022/06/02 12:49:35;;;;;;;6.88;3.85;;;;;;;32.73;41.48;100308.88;4911908;29;20039;-75
2022/06/02 12:52:45;;;;;;;7.25;3.78;;;;;;;32.66;41.87;100305.72;4911659;29;20054;-74